Ana Sayfa
METAR-TAF:

METAR-TAF

Havaalanları :

Pecos, Teksas, Amerika Birleşik Devletleri

Enlem: 31-22-56N, Boylam: 103-30-38W, yükseklik: 796 m

Güncel hava durumu gözlemi

Rapor saat 07:15 UTC de 21 dakika önce yapıldı.
Rüzgar doğudan 4 kt
Sıcaklık 11°C
Nem 58%
Basınç 1014 hPa
Görüş mesafesi: 16.1 km
Açık gökyüzü

METAR: KPEQ 140715Z AUTO 09004KT 10SM CLR 11/03 A2995 RMK AO2 T01060029

Saat: 01:36 (07:36 UTC)

Tahmin

Rapor saat 05:30 UTC de 2 saat ve 6 dakika önce yapıldı.
Ayın 14'si saat 06 UTC'den ayın 15'si saat 06 UTC'ye kadar geçerli Tahmin
Rüzgar batıdan 11 kt
Görüş mesafesi: 10 km
25000 ft yükseklikte parçalı çok bulutlu

TAF: KPEQ 140530Z 1406/1506 27011KT P6SM BKN250

4.000'den fazla havaalanı için hava durumu gözlemleri ve tahminleri (METAR ve TAF raporları).

Kullanılabilir istasyonlar harita üzerinde sarı ve kırmızı noktalarla gösterilir.

İstasyonun adını görmek için fareyi noktanın üzerinde gezdirin.

Sonrasında hava gözlem ve tahminlerini görmek için tıklayın.

Haritayı değiştirmek için: yaklaştırmak için siyah artı işaretli yeşil düğmeye ve uzaklaştırmak için de eksi işaretli düğmeye hızla tıklayın; bitişik haritalar için yeşil okları kullanın.


METAR-TAF: